Time;durP1;ratioP1;P1;durP2;ratioP2;P2;SDS_P1;SDS_P2;PMS_P1;PMS_P2;Temp;Humidity;BMP_temperature;BMP_pressure;BME280_temperature;BME280_humidity;BME280_pressure;Samples;Min_cycle;Max_cycle;Signal;HPM_P1;HPM_P2
2021/08/01 00:01:34;;;;;;;6.15;5.20;;;28.20;57.50;;;;;;4992147;28;20475;-52
2021/08/01 00:04:00;;;;;;;6.13;5.53;;;28.20;57.80;;;;;;4992467;28;20048;-54
2021/08/01 00:06:26;;;;;;;9.13;5.07;;;28.20;57.90;;;;;;4973769;28;20450;-49
2021/08/01 00:08:53;;;;;;;6.90;5.40;;;28.10;58.10;;;;;;4974787;28;20480;-48
2021/08/01 00:11:19;;;;;;;7.15;5.75;;;28.10;58.20;;;;;;4991703;28;20553;-48
2021/08/01 00:13:44;;;;;;;5.90;4.97;;;28.10;58.40;;;;;;4992057;28;20106;-52
2021/08/01 00:16:11;;;;;;;5.80;5.20;;;28.00;58.40;;;;;;4992076;28;20022;-53
2021/08/01 00:18:36;;;;;;;6.13;5.35;;;27.90;58.50;;;;;;4991236;28;20050;-48
2021/08/01 00:21:03;;;;;;;5.78;5.28;;;27.90;58.80;;;;;;4991006;28;20042;-51
2021/08/01 00:23:29;;;;;;;6.75;5.38;;;27.90;58.90;;;;;;4991291;28;20035;-46
2021/08/01 00:25:57;;;;;;;6.30;5.65;;;27.80;58.90;;;;;;4992230;28;20037;-52
2021/08/01 00:28:23;;;;;;;7.47;5.93;;;27.80;59.30;;;;;;4991952;28;20390;-48
2021/08/01 00:30:48;;;;;;;7.32;5.50;;;27.80;59.20;;;;;;4992284;28;20120;-48
2021/08/01 00:33:14;;;;;;;5.90;5.22;;;27.80;60.00;;;;;;4974281;28;20100;-52
2021/08/01 00:35:40;;;;;;;7.78;5.25;;;27.80;59.50;;;;;;4992049;28;20040;-50
2021/08/01 00:38:07;;;;;;;6.88;5.57;;;27.70;59.40;;;;;;4974757;28;20029;-51
2021/08/01 00:40:32;;;;;;;6.80;5.35;;;27.70;59.60;;;;;;4991294;28;20042;-53
2021/08/01 00:42:58;;;;;;;8.98;5.70;;;27.70;59.70;;;;;;4991585;28;20046;-50
2021/08/01 00:45:24;;;;;;;7.07;5.47;;;27.70;60.00;;;;;;4973320;28;20050;-50
2021/08/01 00:47:49;;;;;;;7.07;6.10;;;27.70;59.90;;;;;;4993836;28;20033;-51
2021/08/01 00:50:15;;;;;;;6.28;5.60;;;27.70;59.80;;;;;;4995309;28;20154;-50
2021/08/01 00:52:43;;;;;;;6.32;5.28;;;27.70;59.70;;;;;;4995678;28;20035;-53
2021/08/01 00:55:10;;;;;;;8.30;5.75;;;27.60;59.70;;;;;;4977972;28;20050;-51
2021/08/01 00:57:37;;;;;;;6.18;5.38;;;27.60;59.80;;;;;;4977696;28;20018;-48
2021/08/01 01:03:28;;;;;;;7.15;5.45;;;27.60;60.80;;;;;;4942587;28;20071;-51
2021/08/01 01:05:57;;;;;;;5.85;4.80;;;27.50;60.10;;;;;;4995470;28;20552;-50
2021/08/01 01:08:33;;;;;;;8.60;5.53;;;27.60;59.60;;;;;;4994518;28;20031;-49
2021/08/01 01:13:49;;;;;;;6.20;5.47;;;27.50;59.60;;;;;;4995007;28;20045;-47
2021/08/01 01:16:15;;;;;;;6.75;5.63;;;27.50;59.70;;;;;;4995238;28;20069;-51
2021/08/01 01:18:46;;;;;;;6.68;5.95;;;27.50;59.70;;;;;;4995297;28;20059;-48
2021/08/01 01:21:49;;;;;;;7.43;6.70;;;27.50;59.70;;;;;;4995071;28;20054;-45
2021/08/01 01:24:25;;;;;;;7.65;6.40;;;27.40;60.00;;;;;;4977066;28;20504;-50
2021/08/01 01:27:13;;;;;;;11.25;6.40;;;27.40;60.10;;;;;;4994927;28;20029;-50
2021/08/01 01:30:02;;;;;;;8.32;5.72;;;27.50;60.40;;;;;;4994841;28;20035;-53
2021/08/01 01:33:07;;;;;;;6.78;5.68;;;27.50;60.30;;;;;;4994163;28;20030;-51
2021/08/01 01:35:37;;;;;;;8.23;5.65;;;27.50;60.30;;;;;;4994812;28;20041;-56
2021/08/01 01:38:04;;;;;;;7.75;6.05;;;27.60;60.20;;;;;;4995063;28;20145;-46
2021/08/01 01:40:31;;;;;;;7.90;6.20;;;27.60;60.20;;;;;;4993980;28;20544;-48
2021/08/01 01:42:58;;;;;;;6.22;5.60;;;27.70;60.10;;;;;;4994958;28;20065;-53
2021/08/01 01:45:26;;;;;;;6.53;5.88;;;27.70;60.00;;;;;;4994499;28;20018;-50
2021/08/01 01:47:53;;;;;;;6.68;5.47;;;27.70;60.00;;;;;;4994877;28;20034;-49
2021/08/01 01:50:19;;;;;;;8.75;6.03;;;27.70;60.00;;;;;;4995069;28;20058;-51
2021/08/01 01:52:48;;;;;;;8.07;6.40;;;27.80;60.10;;;;;;4977412;28;20030;-52
2021/08/01 01:55:18;;;;;;;6.78;5.50;;;27.70;60.00;;;;;;4994633;28;20105;-51
2021/08/01 01:57:45;;;;;;;7.57;5.90;;;27.80;60.00;;;;;;4994553;28;20462;-52
2021/08/01 02:00:11;;;;;;;6.63;5.93;;;27.90;59.80;;;;;;4995057;28;20033;-52
2021/08/01 02:02:37;;;;;;;7.57;5.82;;;27.90;59.60;;;;;;4994088;28;20026;-48
2021/08/01 02:05:04;;;;;;;8.10;5.70;;;27.90;59.50;;;;;;4994357;28;20069;-52
2021/08/01 02:07:35;;;;;;;7.90;6.80;;;27.80;59.40;;;;;;4993576;28;20018;-53
2021/08/01 02:10:09;;;;;;;6.80;6.10;;;27.80;59.70;;;;;;4976597;28;20084;-52
2021/08/01 02:12:46;;;;;;;6.00;5.40;;;27.80;59.70;;;;;;4993670;28;20042;-47
2021/08/01 02:15:15;;;;;;;8.60;5.93;;;27.80;59.50;;;;;;4994195;28;20069;-49
2021/08/01 02:17:55;;;;;;;6.93;6.05;;;27.80;59.50;;;;;;4993804;28;20026;-53
2021/08/01 02:20:29;;;;;;;6.55;5.80;;;27.70;59.50;;;;;;4993561;28;20022;-48
2021/08/01 02:22:57;;;;;;;5.93;5.30;;;27.70;59.30;;;;;;4976599;28;20052;-52
2021/08/01 02:25:26;;;;;;;7.38;5.93;;;27.70;59.30;;;;;;4993297;28;20386;-52
2021/08/01 02:27:53;;;;;;;6.85;5.80;;;27.70;59.30;;;;;;4994217;28;20018;-51
2021/08/01 02:30:19;;;;;;;7.00;6.15;;;27.70;59.70;;;;;;4993679;28;20475;-48
2021/08/01 02:32:47;;;;;;;7.22;5.88;;;27.60;59.60;;;;;;4993783;28;20164;-47
2021/08/01 02:35:14;;;;;;;9.52;6.57;;;27.60;59.50;;;;;;4994252;28;20027;-50
2021/08/01 02:37:40;;;;;;;7.97;6.20;;;27.60;59.50;;;;;;4993145;28;20077;-48
2021/08/01 02:42:52;;;;;;;7.00;6.30;;;27.60;59.90;;;;;;4993782;28;20401;-48
2021/08/01 02:45:18;;;;;;;7.65;5.65;;;27.50;60.10;;;;;;4993215;28;20480;-51
2021/08/01 02:47:47;;;;;;;7.00;6.13;;;27.50;60.10;;;;;;4993535;28;20026;-51
2021/08/01 02:50:16;;;;;;;9.27;6.18;;;27.60;60.00;;;;;;4960090;28;20031;-52
2021/08/01 02:52:51;;;;;;;6.60;5.82;;;27.60;59.90;;;;;;4975983;28;20040;-48
2021/08/01 02:55:17;;;;;;;8.55;6.50;;;27.60;59.80;;;;;;4993146;28;20031;-50
2021/08/01 02:57:46;;;;;;;7.65;5.57;;;27.60;59.50;;;;;;4993708;28;20121;-51
2021/08/01 03:00:13;;;;;;;9.55;6.35;;;27.70;59.60;;;;;;4993381;28;20073;-48
2021/08/01 03:05:23;;;;;;;8.55;6.72;;;27.60;59.80;;;;;;4992745;28;20105;-50
2021/08/01 03:07:50;;;;;;;7.25;6.45;;;27.60;60.00;;;;;;4993299;28;20026;-51
2021/08/01 03:10:16;;;;;;;8.00;5.95;;;27.60;60.10;;;;;;4975096;28;20030;-51
2021/08/01 03:12:47;;;;;;;10.63;6.55;;;27.60;60.30;;;;;;4992959;28;20062;-50
2021/08/01 03:15:13;;;;;;;8.73;6.15;;;27.60;60.40;;;;;;4992915;28;20037;-52
2021/08/01 03:17:40;;;;;;;7.55;5.53;;;27.60;60.60;;;;;;4974938;28;20109;-50
2021/08/01 03:20:07;;;;;;;7.35;5.47;;;27.60;60.80;;;;;;4992722;28;20372;-51
2021/08/01 03:22:33;;;;;;;6.30;5.43;;;27.60;60.70;;;;;;4992094;28;20466;-50
2021/08/01 03:24:59;;;;;;;9.88;5.80;;;27.60;60.60;;;;;;4993065;28;20023;-50
2021/08/01 03:27:25;;;;;;;6.85;4.65;;;27.60;60.30;;;;;;4974748;28;20030;-51
2021/08/01 03:29:51;;;;;;;5.40;4.50;;;27.70;60.10;;;;;;4992597;28;20045;-51
2021/08/01 03:32:18;;;;;;;6.43;4.65;;;27.70;59.90;;;;;;4975356;28;20465;-52
2021/08/01 03:34:44;;;;;;;7.68;4.45;;;27.70;59.70;;;;;;4992683;28;20042;-49
2021/08/01 03:37:09;;;;;;;6.60;3.90;;;27.80;59.40;;;;;;4992866;28;20413;-53
2021/08/01 03:39:35;;;;;;;5.72;3.75;;;27.80;59.20;;;;;;4974804;28;20042;-53
2021/08/01 03:42:01;;;;;;;8.10;4.20;;;27.80;59.10;;;;;;4975174;28;20096;-52
2021/08/01 03:44:27;;;;;;;6.88;3.80;;;27.80;58.80;;;;;;4974484;28;20041;-53
2021/08/01 03:46:52;;;;;;;5.10;3.90;;;27.80;58.60;;;;;;4992583;28;20022;-53
2021/08/01 03:49:18;;;;;;;5.50;3.75;;;27.80;58.50;;;;;;4991822;28;20169;-49
2021/08/01 03:51:44;;;;;;;5.03;4.00;;;27.70;58.50;;;;;;4992506;28;20032;-54
2021/08/01 03:54:09;;;;;;;5.60;3.60;;;27.70;58.60;;;;;;4974976;28;20034;-52
2021/08/01 03:56:45;;;;;;;5.40;3.70;;;27.60;58.80;;;;;;4991960;28;20037;-48
2021/08/01 03:59:12;;;;;;;4.57;3.55;;;27.50;59.20;;;;;;4992328;28;20106;-53
2021/08/01 04:01:38;;;;;;;5.28;3.53;;;27.50;59.10;;;;;;4991985;28;20026;-53
2021/08/01 04:04:04;;;;;;;5.45;3.38;;;27.40;58.80;;;;;;4992214;28;20208;-52
2021/08/01 04:06:30;;;;;;;5.38;3.40;;;27.40;59.20;;;;;;4991396;28;20207;-46
2021/08/01 04:08:56;;;;;;;4.80;3.60;;;27.40;59.30;;;;;;4974819;28;20385;-53
2021/08/01 04:11:22;;;;;;;5.80;3.28;;;27.30;59.30;;;;;;4991454;28;20140;-49
2021/08/01 04:16:32;;;;;;;5.10;3.50;;;27.20;59.60;;;;;;4991731;28;20173;-51
2021/08/01 04:18:58;;;;;;;4.55;3.80;;;27.20;59.70;;;;;;4992010;28;20110;-53
2021/08/01 04:21:23;;;;;;;5.95;4.15;;;27.20;59.70;;;;;;4991005;28;20466;-52
2021/08/01 04:23:49;;;;;;;5.60;4.00;;;27.20;59.70;;;;;;4992230;28;20031;-48
2021/08/01 04:26:15;;;;;;;4.65;3.45;;;27.20;59.80;;;;;;4991434;28;20165;-52
2021/08/01 04:28:40;;;;;;;5.50;4.03;;;27.20;59.90;;;;;;4992243;28;20085;-50
2021/08/01 04:31:06;;;;;;;4.88;4.05;;;27.10;60.00;;;;;;4991589;28;20032;-49
2021/08/01 04:33:32;;;;;;;4.93;3.65;;;27.20;60.00;;;;;;4991401;28;20030;-51
2021/08/01 04:35:57;;;;;;;5.18;3.80;;;27.10;59.80;;;;;;4992052;28;20085;-52
2021/08/01 04:38:23;;;;;;;4.97;4.15;;;27.10;60.00;;;;;;4991303;28;20121;-51
2021/08/01 04:40:48;;;;;;;4.88;4.00;;;27.10;60.10;;;;;;4992184;28;20041;-54
2021/08/01 04:43:14;;;;;;;5.95;4.32;;;27.10;60.10;;;;;;4991422;28;20034;-54
2021/08/01 04:45:40;;;;;;;4.65;3.58;;;27.00;60.20;;;;;;4992101;28;20081;-52
2021/08/01 04:48:06;;;;;;;6.40;4.10;;;27.00;60.40;;;;;;4991775;28;20481;-53
2021/08/01 04:50:31;;;;;;;3.90;3.40;;;27.00;60.50;;;;;;4991299;28;20334;-51
2021/08/01 04:52:57;;;;;;;6.53;3.83;;;27.00;60.50;;;;;;4974556;28;20060;-51
2021/08/01 04:55:23;;;;;;;6.25;4.10;;;27.00;60.50;;;;;;4991612;28;20034;-50
2021/08/01 04:57:49;;;;;;;5.97;3.90;;;27.00;60.50;;;;;;4974710;28;20037;-51
2021/08/01 05:00:15;;;;;;;8.10;4.28;;;27.10;60.60;;;;;;4991682;28;20030;-52
2021/08/01 05:02:41;;;;;;;8.13;3.80;;;27.10;60.40;;;;;;4990999;28;20496;-47
2021/08/01 05:05:07;;;;;;;5.70;3.50;;;27.10;60.30;;;;;;4973781;28;20026;-55
2021/08/01 05:07:33;;;;;;;4.68;3.70;;;27.20;60.00;;;;;;4973627;28;20030;-48
2021/08/01 05:09:59;;;;;;;6.88;4.03;;;27.20;60.00;;;;;;4991219;28;20033;-48
2021/08/01 05:12:26;;;;;;;6.35;4.35;;;27.10;60.00;;;;;;4990492;28;20030;-48
2021/08/01 05:14:51;;;;;;;6.97;3.65;;;27.10;60.50;;;;;;4991542;28;20023;-52
2021/08/01 05:17:17;;;;;;;5.97;3.58;;;27.10;60.60;;;;;;4973715;28;20121;-53
2021/08/01 05:19:43;;;;;;;5.22;3.50;;;27.00;60.70;;;;;;4991347;28;20482;-50
2021/08/01 05:22:11;;;;;;;5.35;3.70;;;27.00;61.00;;;;;;4974003;28;20029;-49
2021/08/01 05:24:37;;;;;;;4.47;3.60;;;27.00;61.10;;;;;;4990979;28;20353;-50
2021/08/01 05:27:03;;;;;;;6.10;3.47;;;27.00;60.80;;;;;;4991539;28;20034;-52
2021/08/01 05:29:29;;;;;;;4.45;3.25;;;27.00;60.60;;;;;;4973323;28;20084;-49
2021/08/01 05:31:55;;;;;;;5.57;3.28;;;27.00;60.10;;;;;;4991184;28;20218;-49
2021/08/01 05:34:21;;;;;;;4.68;3.00;;;27.00;60.00;;;;;;4976153;28;20033;-48
2021/08/01 05:36:47;;;;;;;3.28;2.63;;;26.90;60.10;;;;;;4995466;28;20377;-47
2021/08/01 05:39:13;;;;;;;4.38;2.50;;;26.90;59.50;;;;;;4995264;28;20026;-48
2021/08/01 05:41:39;;;;;;;4.63;2.75;;;26.90;59.20;;;;;;4995305;28;20022;-50
2021/08/01 05:44:05;;;;;;;5.18;2.97;;;26.90;59.40;;;;;;4977326;28;20035;-52
2021/08/01 05:46:31;;;;;;;4.55;2.88;;;26.90;59.90;;;;;;4976886;28;20034;-46
2021/08/01 05:48:56;;;;;;;5.32;3.28;;;26.90;59.90;;;;;;4995232;28;20066;-52
2021/08/01 05:51:22;;;;;;;4.65;3.15;;;27.00;60.00;;;;;;4976720;28;20030;-52
2021/08/01 05:53:49;;;;;;;4.15;3.38;;;27.00;60.00;;;;;;4977456;28;20393;-50
2021/08/01 05:56:15;;;;;;;5.70;3.55;;;27.10;60.10;;;;;;4993657;28;20030;-51
2021/08/01 05:58:41;;;;;;;5.80;3.75;;;27.10;60.10;;;;;;4976798;28;20030;-51
2021/08/01 06:01:11;;;;;;;4.78;3.20;;;27.20;60.20;;;;;;4994787;28;20109;-51
2021/08/01 06:03:38;;;;;;;14.95;5.32;;;27.20;59.90;;;;;;4993997;28;20026;-54
2021/08/01 06:06:25;;;;;;;6.70;3.88;;;27.20;60.20;;;;;;4994783;28;20104;-53
2021/08/01 06:08:52;;;;;;;5.38;3.30;;;27.20;60.00;;;;;;4977299;28;20473;-55
2021/08/01 06:11:18;;;;;;;5.50;3.05;;;27.30;59.80;;;;;;4994234;28;20149;-52
2021/08/01 06:13:45;;;;;;;5.00;3.20;;;27.30;59.80;;;;;;4994405;28;20034;-54
2021/08/01 06:16:12;;;;;;;6.95;2.90;;;27.30;59.70;;;;;;4994933;28;20069;-50
2021/08/01 06:18:39;;;;;;;4.18;2.70;;;27.30;59.30;;;;;;4976115;28;20036;-48
2021/08/01 06:21:08;;;;;;;5.15;3.25;;;27.40;59.10;;;;;;4994395;28;20330;-51
2021/08/01 06:23:36;;;;;;;4.97;2.88;;;27.40;59.10;;;;;;4993471;28;20030;-52
2021/08/01 06:26:03;;;;;;;4.63;2.70;;;27.40;59.10;;;;;;4993876;28;20038;-52
2021/08/01 06:28:31;;;;;;;3.85;2.90;;;27.40;59.10;;;;;;4993237;28;20031;-52
2021/08/01 06:30:57;;;;;;;4.72;2.90;;;27.50;59.10;;;;;;4993934;28;20116;-50
2021/08/01 06:33:23;;;;;;;4.72;2.80;;;27.50;59.00;;;;;;4993238;28;20034;-50
2021/08/01 06:35:49;;;;;;;3.63;2.60;;;27.50;59.40;;;;;;4994005;28;20033;-49
2021/08/01 06:38:14;;;;;;;4.97;3.00;;;27.50;59.50;;;;;;4993952;28;20026;-52
2021/08/01 06:40:40;;;;;;;7.05;3.13;;;27.50;59.50;;;;;;4993582;28;20465;-50
2021/08/01 06:43:06;;;;;;;4.53;2.75;;;27.60;59.30;;;;;;4993742;28;20384;-50
2021/08/01 06:45:32;;;;;;;7.15;3.42;;;27.60;59.10;;;;;;4992442;28;20026;-47
2021/08/01 06:47:57;;;;;;;3.90;2.67;;;27.60;59.10;;;;;;4993603;28;20026;-51
2021/08/01 06:50:23;;;;;;;5.32;2.83;;;27.60;59.20;;;;;;4993465;28;20414;-53
2021/08/01 06:52:49;;;;;;;4.70;3.10;;;27.60;59.30;;;;;;4993544;28;20396;-49
2021/08/01 06:55:14;;;;;;;3.97;2.90;;;27.70;59.50;;;;;;4993543;28;20030;-50
2021/08/01 06:57:40;;;;;;;5.13;3.13;;;27.70;59.30;;;;;;4992800;28;20098;-48
2021/08/01 07:00:06;;;;;;;3.75;2.85;;;27.70;59.30;;;;;;4991671;28;20030;-51
2021/08/01 07:02:33;;;;;;;5.15;2.80;;;27.70;59.20;;;;;;4992842;28;20100;-51
2021/08/01 07:04:59;;;;;;;3.75;2.80;;;27.80;59.20;;;;;;4993703;28;20037;-49
2021/08/01 07:07:25;;;;;;;3.45;3.03;;;27.80;59.00;;;;;;4975675;28;20486;-50
2021/08/01 07:09:51;;;;;;;4.10;3.17;;;27.80;58.90;;;;;;4993360;28;20030;-53
2021/08/01 07:12:19;;;;;;;3.67;3.10;;;27.80;58.80;;;;;;4993455;28;20101;-50
2021/08/01 07:14:47;;;;;;;3.58;3.13;;;27.90;58.50;;;;;;4993245;28;20133;-52
2021/08/01 07:17:13;;;;;;;7.65;3.45;;;27.90;58.30;;;;;;4993643;28;20030;-51
2021/08/01 07:19:39;;;;;;;6.00;3.08;;;27.90;58.40;;;;;;4992944;28;20090;-51
2021/08/01 07:22:04;;;;;;;4.70;3.22;;;27.90;58.40;;;;;;4993546;28;20041;-51
2021/08/01 07:24:30;;;;;;;5.53;3.13;;;28.00;58.40;;;;;;4992914;28;20071;-53
2021/08/01 07:26:56;;;;;;;3.72;3.05;;;28.00;58.40;;;;;;4993445;28;20031;-51
2021/08/01 07:29:24;;;;;;;5.40;3.38;;;28.00;58.30;;;;;;4992771;28;20359;-51
2021/08/01 07:31:50;;;;;;;4.95;3.30;;;28.00;58.30;;;;;;4993157;28;20030;-53
2021/08/01 07:34:16;;;;;;;4.95;3.35;;;28.10;58.20;;;;;;4993202;28;20026;-52
2021/08/01 07:36:41;;;;;;;5.57;3.30;;;28.10;58.00;;;;;;4992324;28;20053;-54
2021/08/01 07:39:07;;;;;;;4.28;3.55;;;28.10;58.00;;;;;;4993266;28;20136;-52
2021/08/01 07:41:33;;;;;;;4.68;3.63;;;28.10;58.00;;;;;;4993103;28;20057;-50
2021/08/01 07:43:58;;;;;;;5.65;3.65;;;28.10;58.10;;;;;;4992955;28;20037;-52
2021/08/01 07:46:24;;;;;;;6.35;3.97;;;28.10;58.20;;;;;;4975493;28;20033;-52
2021/08/01 07:48:50;;;;;;;5.15;4.15;;;28.10;58.20;;;;;;4992874;28;20030;-51
2021/08/01 07:51:15;;;;;;;6.03;4.40;;;28.10;58.20;;;;;;4975373;28;20377;-50
2021/08/01 07:53:41;;;;;;;5.78;4.20;;;28.00;58.20;;;;;;4992345;28;20252;-50
2021/08/01 07:56:07;;;;;;;8.23;4.90;;;28.00;58.60;;;;;;4992993;28;20439;-52
2021/08/01 07:58:33;;;;;;;7.45;4.70;;;28.00;58.90;;;;;;4992500;28;20029;-50
2021/08/01 08:00:58;;;;;;;6.57;4.68;;;28.00;59.30;;;;;;4975427;28;20026;-51
2021/08/01 08:03:24;;;;;;;6.95;4.57;;;27.90;59.50;;;;;;4974568;28;20097;-52
2021/08/01 08:05:51;;;;;;;10.48;4.60;;;27.90;59.60;;;;;;4993258;28;20097;-56
2021/08/01 08:08:17;;;;;;;7.75;4.70;;;27.80;59.60;;;;;;4992738;28;20030;-56
2021/08/01 08:10:43;;;;;;;5.45;4.10;;;27.90;59.80;;;;;;4992418;28;20583;-57
2021/08/01 08:13:08;;;;;;;7.57;3.63;;;27.90;59.60;;;;;;4992820;28;20065;-57
2021/08/01 08:15:34;;;;;;;7.93;4.03;;;28.00;59.20;;;;;;4974004;28;20077;-57
2021/08/01 08:18:00;;;;;;;6.15;4.18;;;28.00;59.00;;;;;;4991641;28;20362;-57
2021/08/01 08:20:26;;;;;;;6.63;3.47;;;28.10;58.70;;;;;;4991243;28;20041;-57
2021/08/01 08:22:51;;;;;;;5.68;3.70;;;28.20;58.30;;;;;;4992210;28;20030;-57
2021/08/01 08:25:17;;;;;;;6.40;3.38;;;28.20;58.10;;;;;;4991901;28;20027;-56
2021/08/01 08:27:43;;;;;;;5.38;3.75;;;28.30;57.80;;;;;;4992121;28;20569;-57
2021/08/01 08:30:10;;;;;;;7.57;4.28;;;28.30;57.60;;;;;;4991230;28;20030;-57
2021/08/01 08:32:36;;;;;;;7.40;3.78;;;28.40;57.40;;;;;;4990344;28;20101;-56
2021/08/01 08:35:03;;;;;;;5.03;3.70;;;28.40;57.20;;;;;;4991521;28;20093;-55
2021/08/01 08:37:29;;;;;;;4.75;3.38;;;28.50;57.10;;;;;;4991840;28;20154;-55
2021/08/01 08:39:54;;;;;;;4.50;3.22;;;28.50;57.00;;;;;;4973902;28;20030;-56
2021/08/01 08:42:20;;;;;;;4.90;3.63;;;28.60;56.90;;;;;;4991687;28;20461;-56
2021/08/01 08:44:46;;;;;;;5.28;3.55;;;28.60;56.60;;;;;;4991282;28;20026;-56
2021/08/01 08:47:19;;;;;;;7.13;3.80;;;28.60;56.60;;;;;;4991988;28;20109;-57
2021/08/01 08:49:50;;;;;;;7.53;3.47;;;28.60;56.50;;;;;;4974614;28;20321;-57
2021/08/01 08:52:19;;;;;;;7.20;3.22;;;28.70;56.70;;;;;;4992435;28;20424;-57
2021/08/01 08:54:49;;;;;;;4.80;3.80;;;28.70;56.50;;;;;;4974276;28;20026;-55
2021/08/01 08:57:27;;;;;;;6.05;4.00;;;28.70;56.70;;;;;;4991997;28;20034;-57
2021/08/01 09:00:01;;;;;;;5.55;4.43;;;28.70;56.80;;;;;;4990632;28;20026;-57
2021/08/01 09:02:27;;;;;;;6.72;4.97;;;28.70;57.00;;;;;;4990316;28;20035;-56
2021/08/01 09:04:53;;;;;;;6.80;4.50;;;28.80;57.10;;;;;;4990952;28;20029;-59
2021/08/01 09:07:18;;;;;;;7.78;4.78;;;28.80;57.30;;;;;;4990577;28;20046;-57
2021/08/01 09:09:44;;;;;;;7.00;4.57;;;28.80;57.40;;;;;;4994254;28;20029;-56
2021/08/01 09:12:10;;;;;;;5.25;4.68;;;28.80;57.40;;;;;;4995086;28;20437;-51
2021/08/01 09:14:35;;;;;;;7.45;4.88;;;28.80;57.40;;;;;;4995234;28;20046;-58
2021/08/01 09:17:01;;;;;;;7.47;4.80;;;28.80;57.50;;;;;;4993671;28;20034;-57
2021/08/01 09:19:36;;;;;;;6.07;4.20;;;28.80;57.50;;;;;;4976999;28;20081;-59
2021/08/01 09:22:22;;;;;;;7.55;5.22;;;28.80;57.30;;;;;;4995168;28;20041;-57
2021/08/01 09:24:52;;;;;;;9.50;5.32;;;28.80;57.30;;;;;;4994673;28;20027;-56
2021/08/01 09:27:34;;;;;;;5.40;4.90;;;28.80;57.10;;;;;;4994962;28;20438;-56
2021/08/01 09:30:01;;;;;;;6.97;4.80;;;28.80;57.20;;;;;;4995134;28;20026;-57
2021/08/01 09:32:31;;;;;;;6.90;5.10;;;28.80;57.10;;;;;;4994099;28;20065;-57
2021/08/01 09:34:57;;;;;;;7.40;5.20;;;28.90;57.20;;;;;;4974790;28;20121;-56
2021/08/01 09:37:34;;;;;;;6.20;5.00;;;28.90;57.20;;;;;;4994330;28;20109;-56
2021/08/01 09:40:12;;;;;;;6.15;5.32;;;28.90;57.20;;;;;;4995128;28;20057;-57
2021/08/01 09:42:41;;;;;;;8.23;4.97;;;28.90;57.20;;;;;;4993780;28;20044;-55
2021/08/01 09:45:16;;;;;;;7.65;5.53;;;28.90;57.20;;;;;;4994432;28;20061;-54
2021/08/01 09:47:43;;;;;;;6.22;4.95;;;28.90;57.20;;;;;;4994545;28;20046;-56
2021/08/01 09:50:09;;;;;;;6.82;5.30;;;29.00;57.10;;;;;;4994571;28;20077;-55
2021/08/01 09:52:35;;;;;;;6.82;5.50;;;29.00;57.00;;;;;;4994517;28;20034;-57
2021/08/01 09:55:01;;;;;;;5.55;4.95;;;29.10;56.90;;;;;;4994628;28;20026;-57
2021/08/01 09:57:27;;;;;;;5.57;4.90;;;29.00;56.80;;;;;;4976650;28;20105;-57
2021/08/01 10:00:09;;;;;;;6.00;4.90;;;29.10;56.80;;;;;;4994109;28;20474;-56
2021/08/01 10:02:37;;;;;;;5.88;5.05;;;29.00;56.60;;;;;;4976123;28;20022;-56
2021/08/01 10:05:25;;;;;;;8.52;4.90;;;29.10;56.50;;;;;;4994329;28;20105;-56
2021/08/01 10:07:52;;;;;;;6.88;4.90;;;29.10;56.60;;;;;;4993684;28;20193;-56
2021/08/01 10:10:22;;;;;;;6.28;5.05;;;29.20;56.50;;;;;;4994993;28;20033;-54
2021/08/01 10:12:52;;;;;;;5.63;4.97;;;29.10;56.50;;;;;;4993397;28;20030;-55
2021/08/01 10:15:18;;;;;;;5.50;4.85;;;29.20;56.50;;;;;;4976654;28;20027;-56
2021/08/01 10:17:44;;;;;;;6.38;4.80;;;29.20;56.50;;;;;;4992872;28;20105;-56
2021/08/01 10:20:10;;;;;;;7.78;5.05;;;29.20;56.50;;;;;;4993902;28;20530;-57
2021/08/01 10:22:38;;;;;;;6.22;4.97;;;29.20;56.50;;;;;;4993492;28;20034;-55
2021/08/01 10:25:10;;;;;;;5.53;4.60;;;29.20;56.40;;;;;;4994189;28;20030;-57
2021/08/01 10:27:40;;;;;;;6.18;4.07;;;29.20;56.30;;;;;;4992798;28;20038;-57
2021/08/01 10:30:06;;;;;;;5.82;4.32;;;29.20;56.20;;;;;;4994151;28;20034;-57
2021/08/01 10:32:38;;;;;;;5.13;4.45;;;29.20;56.10;;;;;;4992947;28;20036;-57
2021/08/01 10:35:12;;;;;;;5.97;4.57;;;29.20;56.00;;;;;;4994487;28;20030;-55
2021/08/01 10:37:39;;;;;;;5.25;4.55;;;29.20;55.90;;;;;;4992988;28;20031;-57
2021/08/01 10:40:08;;;;;;;6.43;4.78;;;29.20;55.70;;;;;;4993532;28;20026;-54
2021/08/01 10:42:37;;;;;;;6.45;4.93;;;29.20;55.60;;;;;;4991394;28;20132;-55
2021/08/01 10:45:05;;;;;;;6.07;4.18;;;29.30;55.50;;;;;;4993755;28;20113;-57
2021/08/01 10:47:32;;;;;;;5.55;4.97;;;29.20;55.40;;;;;;4993313;28;20047;-54
2021/08/01 10:50:00;;;;;;;5.75;4.10;;;29.30;55.40;;;;;;4975921;28;20038;-57
2021/08/01 10:55:24;;;;;;;5.30;4.43;;;29.30;56.00;;;;;;4993668;28;20433;-57
2021/08/01 10:58:12;;;;;;;5.43;4.45;;;29.30;55.90;;;;;;4975454;28;20031;-57
2021/08/01 11:00:56;;;;;;;5.75;4.00;;;29.30;55.80;;;;;;4992449;28;20041;-57
2021/08/01 11:03:25;;;;;;;5.38;4.25;;;29.30;55.40;;;;;;4975888;28;20053;-57
2021/08/01 11:05:51;;;;;;;4.50;3.90;;;29.40;55.40;;;;;;4987811;28;20047;-54
2021/08/01 11:08:17;;;;;;;4.60;4.20;;;29.40;55.20;;;;;;4973699;28;20167;-58
2021/08/01 11:10:44;;;;;;;4.47;4.07;;;29.40;55.20;;;;;;4973368;28;20115;-55
2021/08/01 11:13:31;;;;;;;6.35;4.20;;;29.40;55.10;;;;;;4974138;28;20144;-53
2021/08/01 11:15:57;;;;;;;5.00;3.78;;;29.40;54.90;;;;;;4971899;28;20291;-56
2021/08/01 11:18:34;;;;;;;4.38;3.78;;;29.50;54.70;;;;;;4973412;28;20521;-57
2021/08/01 11:21:03;;;;;;;4.85;4.22;;;29.40;54.80;;;;;;4971232;28;20027;-56
2021/08/01 11:24:04;;;;;;;7.45;4.57;;;29.50;54.60;;;;;;4972664;28;20039;-53
2021/08/01 11:26:30;;;;;;;5.32;4.07;;;29.50;54.70;;;;;;4961708;28;20062;-56
2021/08/01 11:29:08;;;;;;;4.82;4.20;;;29.60;54.60;;;;;;4972956;28;20098;-56
2021/08/01 11:31:35;;;;;;;7.07;4.55;;;29.50;54.50;;;;;;4972901;28;20050;-58
2021/08/01 11:34:44;;;;;;;6.25;4.38;;;29.60;54.40;;;;;;4971932;28;20031;-57
2021/08/01 11:37:19;;;;;;;4.85;4.15;;;29.50;54.30;;;;;;4988134;28;20111;-55
2021/08/01 11:39:58;;;;;;;6.18;4.00;;;29.60;54.40;;;;;;4973132;28;20031;-56
2021/08/01 11:42:25;;;;;;;4.70;3.85;;;29.60;54.60;;;;;;4973512;28;20029;-56
2021/08/01 11:45:02;;;;;;;4.80;2.97;;;29.70;54.20;;;;;;4971578;28;20038;-55
2021/08/01 11:47:42;;;;;;;4.97;3.50;;;29.60;54.00;;;;;;4971899;28;20120;-56
2021/08/01 11:50:07;;;;;;;4.72;3.40;;;29.60;53.90;;;;;;4971620;28;20039;-53
2021/08/01 11:52:45;;;;;;;4.03;2.92;;;29.60;53.70;;;;;;4971568;28;20033;-56
2021/08/01 11:55:18;;;;;;;4.68;3.25;;;29.60;53.50;;;;;;4973429;28;20054;-57
2021/08/01 11:57:54;;;;;;;3.78;3.30;;;29.60;53.70;;;;;;4971953;28;20042;-58
2021/08/01 12:00:24;;;;;;;5.35;3.55;;;29.70;54.00;;;;;;4970762;28;20046;-58
2021/08/01 12:03:00;;;;;;;3.72;3.33;;;29.70;53.60;;;;;;4971628;28;20035;-56
2021/08/01 12:05:58;;;;;;;5.07;4.18;;;29.70;53.60;;;;;;4976397;28;20047;-56
2021/08/01 12:08:35;;;;;;;4.72;3.47;;;29.70;53.40;;;;;;4969360;28;20038;-56
2021/08/01 12:11:11;;;;;;;4.03;3.60;;;29.70;53.20;;;;;;4991178;28;20084;-56
2021/08/01 12:13:38;;;;;;;4.35;3.38;;;29.70;53.10;;;;;;4974031;28;20041;-57
2021/08/01 12:16:18;;;;;;;4.45;3.40;;;29.70;52.90;;;;;;4991508;28;20030;-53
2021/08/01 12:18:44;;;;;;;3.58;3.20;;;29.70;52.90;;;;;;4991136;28;20037;-57
2021/08/01 12:21:34;;;;;;;3.45;2.78;;;29.70;52.60;;;;;;4991759;28;20389;-54
2021/08/01 12:24:00;;;;;;;3.50;2.83;;;29.60;52.40;;;;;;4991408;28;20060;-58
2021/08/01 12:26:40;;;;;;;3.20;2.63;;;29.60;52.00;;;;;;4991665;28;20026;-55
2021/08/01 12:29:06;;;;;;;3.85;2.10;;;29.60;52.10;;;;;;4991535;28;20037;-54
2021/08/01 12:31:32;;;;;;;4.57;2.25;;;29.60;51.60;;;;;;4991309;28;20026;-56
2021/08/01 12:33:58;;;;;;;4.05;2.08;;;29.60;51.40;;;;;;4991205;28;20117;-54
2021/08/01 12:36:27;;;;;;;3.15;2.05;;;29.60;51.10;;;;;;4991520;28;20129;-54
2021/08/01 12:38:53;;;;;;;2.70;1.88;;;29.60;50.90;;;;;;4973181;28;20022;-57
2021/08/01 12:41:22;;;;;;;2.05;1.70;;;29.60;50.80;;;;;;4991286;28;20033;-55
2021/08/01 12:43:48;;;;;;;1.48;1.35;;;29.60;50.40;;;;;;4990130;28;20358;-56
2021/08/01 12:46:19;;;;;;;2.20;1.45;;;29.60;49.90;;;;;;4991023;28;20442;-56
2021/08/01 12:48:48;;;;;;;3.88;1.58;;;29.60;49.70;;;;;;4990842;28;20060;-56
2021/08/01 12:51:15;;;;;;;2.80;1.50;;;29.50;49.40;;;;;;4973548;28;20035;-57
2021/08/01 12:53:41;;;;;;;2.03;1.10;;;29.50;49.40;;;;;;4973663;28;20038;-57
2021/08/01 12:56:07;;;;;;;2.78;1.10;;;29.50;49.10;;;;;;4991359;28;20026;-55
2021/08/01 12:58:39;;;;;;;3.45;1.20;;;29.50;48.90;;;;;;4973719;28;20371;-57
2021/08/01 13:01:09;;;;;;;2.30;1.00;;;29.40;48.90;;;;;;4974303;28;20052;-55
2021/08/01 13:03:46;;;;;;;2.92;1.23;;;29.50;49.10;;;;;;4974337;28;20155;-56
2021/08/01 13:06:14;;;;;;;1.83;1.20;;;29.50;48.90;;;;;;4973397;28;20170;-56
2021/08/01 13:08:44;;;;;;;3.25;1.15;;;29.50;48.70;;;;;;4973336;28;20056;-57
2021/08/01 13:11:12;;;;;;;3.88;1.67;;;29.40;48.80;;;;;;4974000;28;20030;-56